createdAt,value
2018-04-02T00:01:50.510Z,57.30
2018-04-02T00:04:21.637Z,57.90
2018-04-02T00:06:53.004Z,59.00
2018-04-02T00:09:23.796Z,58.80
2018-04-02T00:11:54.666Z,58.70
2018-04-02T00:14:26.438Z,61.00
2018-04-02T00:16:57.650Z,61.00
2018-04-02T00:19:28.397Z,61.60
2018-04-02T00:22:00.135Z,61.70
2018-04-02T00:24:30.935Z,61.60
2018-04-02T00:27:02.050Z,62.90
2018-04-02T00:29:33.506Z,62.70
2018-04-02T00:32:05.056Z,63.30
2018-04-02T00:34:36.639Z,63.30
2018-04-02T00:37:07.445Z,63.30
2018-04-02T00:39:38.847Z,64.30
2018-04-02T00:42:09.520Z,64.20
2018-04-02T00:44:41.605Z,64.90
2018-04-02T00:47:12.668Z,64.80
2018-04-02T00:49:43.568Z,64.60
2018-04-02T00:52:14.366Z,64.60
2018-04-02T00:54:45.095Z,64.00
2018-04-02T00:57:15.903Z,65.00
2018-04-02T00:59:46.606Z,64.60
2018-04-02T01:02:17.486Z,64.80
2018-04-02T01:04:48.383Z,65.60
2018-04-02T01:07:18.833Z,65.70
2018-04-02T01:09:49.576Z,66.10
2018-04-02T01:12:21.061Z,66.10
2018-04-02T01:14:52.636Z,67.00
2018-04-02T01:17:24.344Z,67.40
2018-04-02T01:19:55.389Z,67.40
2018-04-02T01:22:26.900Z,68.60
2018-04-02T01:24:57.805Z,68.50
2018-04-02T01:27:28.853Z,69.10
2018-04-02T01:29:59.747Z,69.40
2018-04-02T01:32:30.841Z,69.70
2018-04-02T01:35:02.117Z,69.80
2018-04-02T01:37:34.301Z,69.70
2018-04-02T01:40:05.152Z,69.70
2018-04-02T01:42:36.451Z,69.60
2018-04-02T01:45:07.010Z,69.80
2018-04-02T01:47:37.765Z,69.80
2018-04-02T01:50:08.455Z,70.80
2018-04-02T01:52:39.690Z,71.40
2018-04-02T01:55:10.412Z,71.80
2018-04-02T01:57:41.310Z,72.60
2018-04-02T02:00:11.978Z,72.50
2018-04-02T02:02:42.838Z,72.80
2018-04-02T02:05:14.387Z,72.70
2018-04-02T02:07:45.126Z,72.70
2018-04-02T02:10:21.534Z,73.10
2018-04-02T02:12:53.351Z,73.30
2018-04-02T02:15:24.144Z,73.20
2018-04-02T02:17:54.947Z,73.30
2018-04-02T02:20:25.758Z,73.80
2018-04-02T02:22:56.790Z,74.30
2018-04-02T02:25:28.067Z,74.40
2018-04-02T02:28:00.086Z,74.60
2018-04-02T02:30:31.880Z,74.80
2018-04-02T02:33:03.278Z,75.10
2018-04-02T02:35:33.958Z,75.00
2018-04-02T02:38:05.573Z,75.10
2018-04-02T02:40:36.828Z,75.00
2018-04-02T02:43:08.405Z,74.90
2018-04-02T02:45:39.345Z,74.80
2018-04-02T02:48:11.415Z,75.30
2018-04-02T02:50:42.277Z,75.30
2018-04-02T02:53:13.874Z,75.40
2018-04-02T02:55:45.204Z,75.30
2018-04-02T02:58:16.088Z,75.30
2018-04-02T03:00:46.831Z,75.50
2018-04-02T03:03:18.414Z,75.60
2018-04-02T03:05:49.174Z,75.50
2018-04-02T03:08:20.062Z,75.70
2018-04-02T03:10:51.405Z,75.20
2018-04-02T03:13:22.113Z,75.20
2018-04-02T03:15:52.719Z,75.40
2018-04-02T03:18:23.323Z,75.60
2018-04-02T03:20:54.988Z,75.50
2018-04-02T03:23:25.882Z,75.30
2018-04-02T03:25:57.752Z,76.00
2018-04-02T03:28:29.471Z,76.00
2018-04-02T03:31:01.026Z,76.30
2018-04-02T03:33:31.989Z,76.10
2018-04-02T03:36:03.028Z,76.50
2018-04-02T03:38:35.297Z,76.60
2018-04-02T03:41:07.106Z,76.70
2018-04-02T03:43:37.937Z,76.70
2018-04-02T03:46:09.882Z,76.90
2018-04-02T03:48:41.550Z,77.10
2018-04-02T03:51:12.199Z,77.10
2018-04-02T03:53:43.171Z,77.00
2018-04-02T03:56:13.856Z,77.10
2018-04-02T03:58:45.524Z,77.40
2018-04-02T04:01:16.499Z,77.70
2018-04-02T04:03:47.157Z,77.80
2018-04-02T04:06:17.915Z,78.00
2018-04-02T04:08:48.513Z,78.20
2018-04-02T04:11:19.166Z,78.40
2018-04-02T04:13:50.196Z,78.70
2018-04-02T04:16:21.848Z,79.00
2018-04-02T04:18:52.605Z,78.90
2018-04-02T04:21:23.334Z,79.80
2018-04-02T04:23:54.969Z,79.20
2018-04-02T04:26:25.736Z,79.10
2018-04-02T04:28:56.939Z,78.90
2018-04-02T04:31:28.326Z,78.60
2018-04-02T04:33:59.096Z,78.10
2018-04-02T04:36:29.855Z,77.90
2018-04-02T04:39:00.701Z,77.40
2018-04-02T04:41:32.151Z,77.30
2018-04-02T04:44:03.900Z,77.40
2018-04-02T04:46:35.533Z,77.40
2018-04-02T04:49:06.714Z,77.40
2018-04-02T04:51:37.565Z,77.50
2018-04-02T04:54:08.275Z,77.50
2018-04-02T04:56:40.235Z,78.30
2018-04-02T04:59:10.940Z,78.20
2018-04-02T05:01:41.797Z,78.70
2018-04-02T05:04:12.689Z,79.20
2018-04-02T05:06:43.879Z,79.40
2018-04-02T05:09:14.514Z,79.40
2018-04-02T05:11:46.271Z,79.80
2018-04-02T05:14:16.933Z,79.70
2018-04-02T05:16:47.667Z,80.00
2018-04-02T05:19:19.172Z,80.10
2018-04-02T05:21:50.527Z,80.00
2018-04-02T05:24:22.012Z,80.50
2018-04-02T05:26:54.519Z,80.00
2018-04-02T05:29:25.382Z,79.90
2018-04-02T05:31:56.332Z,79.90
2018-04-02T05:34:27.925Z,80.20
2018-04-02T05:37:00.798Z,80.20
2018-04-02T05:39:32.642Z,80.20
2018-04-02T05:42:04.473Z,80.50
2018-04-02T05:44:35.361Z,80.40
2018-04-02T05:47:06.437Z,80.80
2018-04-02T05:49:38.282Z,80.90
2018-04-02T05:52:09.184Z,80.90
2018-04-02T05:54:40.852Z,80.90
2018-04-02T05:57:13.356Z,80.90
2018-04-02T05:59:44.666Z,80.80
2018-04-02T06:02:15.998Z,80.60
2018-04-02T06:04:47.310Z,80.90
2018-04-02T06:07:19.990Z,80.90
2018-04-02T06:09:51.585Z,80.70
2018-04-02T06:12:22.547Z,81.00
2018-04-02T06:14:53.813Z,80.90
2018-04-02T06:17:24.781Z,80.90
2018-04-02T06:19:55.467Z,81.20
2018-04-02T06:22:26.105Z,81.10
2018-04-02T06:24:57.895Z,80.70
2018-04-02T06:27:28.742Z,80.60
2018-04-02T06:30:00.712Z,80.60
2018-04-02T06:32:31.283Z,80.50
2018-04-02T06:35:02.102Z,80.30
2018-04-02T06:37:32.794Z,80.00
2018-04-02T06:40:03.624Z,79.70
2018-04-02T06:42:34.530Z,79.70
2018-04-02T06:45:05.167Z,79.30
2018-04-02T06:47:36.797Z,78.70
2018-04-02T06:50:07.636Z,78.50
2018-04-02T06:52:39.233Z,78.90
2018-04-02T06:55:10.386Z,78.90
2018-04-02T06:57:41.126Z,78.50
2018-04-02T07:00:11.577Z,78.60
2018-04-02T07:02:42.607Z,78.20
2018-04-02T07:05:13.878Z,78.30
2018-04-02T07:07:46.505Z,78.70
2018-04-02T07:10:18.215Z,78.50
2018-04-02T07:12:52.426Z,78.40
2018-04-02T07:15:23.156Z,78.30
2018-04-02T07:17:54.959Z,78.10
2018-04-02T07:20:26.667Z,77.60
2018-04-02T07:22:58.403Z,77.40
2018-04-02T07:25:29.558Z,77.40
2018-04-02T07:28:01.144Z,77.10
2018-04-02T07:30:32.831Z,77.20
2018-04-02T07:33:04.286Z,77.10
2018-04-02T07:35:34.959Z,77.00
2018-04-02T07:38:05.691Z,77.20
2018-04-02T07:40:36.282Z,77.40
2018-04-02T07:43:07.924Z,77.50
2018-04-02T07:45:39.504Z,77.30
2018-04-02T07:48:10.219Z,77.20
2018-04-02T07:50:40.907Z,77.00
2018-04-02T07:53:12.785Z,76.60
2018-04-02T07:55:43.574Z,76.50
2018-04-02T07:58:14.230Z,76.40
2018-04-02T08:00:46.226Z,76.60
2018-04-02T08:03:17.177Z,76.60
2018-04-02T08:05:48.276Z,76.40
2018-04-02T08:08:19.233Z,76.50
2018-04-02T08:10:49.983Z,76.30
2018-04-02T08:13:20.636Z,76.00
2018-04-02T08:15:52.142Z,75.90
2018-04-02T08:18:23.620Z,76.00
2018-04-02T08:20:55.263Z,75.00
2018-04-02T08:23:27.126Z,75.60
2018-04-02T08:25:58.142Z,75.30
2018-04-02T08:28:29.033Z,75.30
2018-04-02T08:31:00.960Z,74.90
2018-04-02T08:33:31.880Z,74.90
2018-04-02T08:36:03.107Z,74.60
2018-04-02T08:38:34.357Z,74.60
2018-04-02T08:41:05.176Z,74.70
2018-04-02T08:43:36.134Z,74.60
2018-04-02T08:46:06.877Z,74.80
2018-04-02T08:48:38.228Z,74.80
2018-04-02T08:51:08.875Z,74.90
2018-04-02T08:53:39.673Z,74.80
2018-04-02T08:56:10.513Z,75.00
2018-04-02T08:58:41.222Z,74.80
2018-04-02T09:01:12.131Z,75.00
2018-04-02T09:03:43.082Z,75.10
2018-04-02T09:06:13.898Z,75.40
2018-04-02T09:08:45.759Z,74.80
2018-04-02T09:11:16.503Z,74.60
2018-04-02T09:13:47.155Z,74.30
2018-04-02T09:16:17.886Z,74.20
2018-04-02T09:18:49.261Z,74.30
2018-04-02T09:21:20.187Z,74.50
2018-04-02T09:23:51.680Z,75.00
2018-04-02T09:26:22.366Z,74.30
2018-04-02T09:28:53.732Z,74.00
2018-04-02T09:31:25.059Z,73.90
2018-04-02T09:33:56.758Z,73.60
2018-04-02T09:36:27.592Z,73.60
2018-04-02T09:38:58.352Z,73.70
2018-04-02T09:41:29.158Z,73.60
2018-04-02T09:43:59.963Z,73.60
2018-04-02T09:46:31.658Z,73.40
2018-04-02T09:49:02.594Z,73.30
2018-04-02T09:51:33.529Z,73.20
2018-04-02T09:54:04.594Z,73.00
2018-04-02T09:56:35.579Z,73.00
2018-04-02T09:59:06.380Z,72.80
2018-04-02T10:01:38.586Z,72.50
2018-04-02T10:04:09.708Z,72.60
2018-04-02T10:06:40.313Z,72.50
2018-04-02T10:09:11.171Z,72.40
2018-04-02T10:11:41.837Z,72.30
2018-04-02T10:14:13.405Z,72.30
2018-04-02T10:16:44.239Z,72.30
2018-04-02T10:19:14.891Z,72.30
2018-04-02T10:21:46.920Z,72.50
2018-04-02T10:24:18.009Z,72.50
2018-04-02T10:26:48.556Z,72.40
2018-04-02T10:29:20.235Z,72.60
2018-04-02T10:31:50.939Z,72.60
2018-04-02T10:34:21.790Z,72.60
2018-04-02T10:36:52.515Z,73.10
2018-04-02T10:39:24.068Z,73.20
2018-04-02T10:41:55.761Z,73.40
2018-04-02T10:44:26.548Z,73.30
2018-04-02T10:46:57.316Z,73.10
2018-04-02T10:49:28.946Z,72.60
2018-04-02T10:51:59.639Z,72.60
2018-04-02T10:54:30.531Z,72.80
2018-04-02T10:57:01.136Z,72.70
2018-04-02T10:59:31.984Z,73.20
2018-04-02T11:02:04.572Z,72.90
2018-04-02T11:04:36.317Z,72.90
2018-04-02T11:07:09.020Z,72.30
2018-04-02T11:09:40.383Z,73.00
2018-04-02T11:12:12.647Z,72.70
2018-04-02T11:14:44.209Z,72.60
2018-04-02T11:17:15.767Z,73.00
2018-04-02T11:19:46.432Z,73.40
2018-04-02T11:22:18.358Z,73.30
2018-04-02T11:24:49.073Z,73.30
2018-04-02T11:27:19.832Z,73.20
2018-04-02T11:29:51.114Z,73.40
2018-04-02T11:32:22.052Z,73.20
2018-04-02T11:34:52.964Z,73.00
2018-04-02T11:37:23.587Z,73.00
2018-04-02T11:39:54.288Z,72.90
2018-04-02T11:42:24.955Z,73.10
2018-04-02T11:44:55.593Z,73.30
2018-04-02T11:47:26.343Z,73.50
2018-04-02T11:49:57.637Z,73.00
2018-04-02T11:52:28.410Z,73.20
2018-04-02T11:54:59.197Z,73.50
2018-04-02T11:57:29.969Z,73.30
2018-04-02T12:00:00.694Z,73.00
2018-04-02T12:02:31.480Z,73.20
2018-04-02T12:05:02.276Z,73.70
2018-04-02T12:07:33.133Z,73.00
2018-04-02T12:10:04.063Z,72.90
2018-04-02T12:12:34.832Z,72.80
2018-04-02T12:15:05.426Z,72.80
2018-04-02T12:17:37.654Z,72.80
2018-04-02T12:20:09.292Z,72.90
2018-04-02T12:22:40.193Z,72.80
2018-04-02T12:25:10.711Z,72.80
2018-04-02T12:27:41.541Z,73.30
2018-04-02T12:30:12.053Z,73.70
2018-04-02T12:32:42.976Z,73.70
2018-04-02T12:35:13.907Z,73.70
2018-04-02T12:37:44.703Z,73.70
2018-04-02T12:40:15.432Z,74.00
2018-04-02T12:42:46.069Z,74.70
2018-04-02T12:45:18.215Z,74.60
2018-04-02T12:47:49.086Z,74.50
2018-04-02T12:50:20.320Z,74.20
2018-04-02T12:52:52.120Z,74.00
2018-04-02T12:55:22.969Z,74.00
2018-04-02T12:57:53.730Z,74.00
2018-04-02T13:00:24.575Z,74.20
2018-04-02T13:02:55.544Z,73.10
2018-04-02T13:05:27.050Z,73.50
2018-04-02T13:07:57.721Z,73.50
2018-04-02T13:10:28.516Z,73.90
2018-04-02T13:12:59.314Z,73.50
2018-04-02T13:15:30.213Z,73.30
2018-04-02T13:18:00.948Z,73.40
2018-04-02T13:20:32.823Z,73.40
2018-04-02T13:23:03.705Z,73.40
2018-04-02T13:25:34.417Z,73.40
2018-04-02T13:28:05.507Z,73.70
2018-04-02T13:30:36.856Z,73.30
2018-04-02T13:33:07.757Z,73.40
2018-04-02T13:35:39.241Z,73.80
2018-04-02T13:38:10.194Z,73.70
2018-04-02T13:40:40.991Z,73.50
2018-04-02T13:43:11.841Z,73.60
2018-04-02T13:45:42.289Z,73.90
2018-04-02T13:48:13.343Z,73.70
2018-04-02T13:50:44.119Z,73.80
2018-04-02T13:53:17.119Z,73.60
2018-04-02T13:55:47.885Z,73.90
2018-04-02T13:58:18.908Z,73.90
2018-04-02T14:00:49.514Z,73.70
2018-04-02T14:03:20.563Z,73.40
2018-04-02T14:05:52.134Z,73.30
2018-04-02T14:08:23.162Z,73.20
2018-04-02T14:10:54.476Z,72.80
2018-04-02T14:13:25.361Z,72.80
2018-04-02T14:15:56.243Z,72.80
2018-04-02T14:18:27.674Z,72.80
2018-04-02T14:20:58.556Z,72.80
2018-04-02T14:23:29.738Z,72.60
2018-04-02T14:26:00.600Z,72.80
2018-04-02T14:28:31.510Z,73.20
2018-04-02T14:31:02.800Z,73.00
2018-04-02T14:33:33.551Z,72.90
2018-04-02T14:36:04.933Z,72.50
2018-04-02T14:38:36.063Z,73.20
2018-04-02T14:41:06.827Z,73.10
2018-04-02T14:43:37.539Z,74.20
2018-04-02T14:46:08.148Z,73.00
2018-04-02T14:48:38.844Z,73.50
2018-04-02T14:51:11.170Z,73.20
2018-04-02T14:53:42.618Z,72.50
2018-04-02T14:56:13.309Z,72.50
2018-04-02T14:58:44.957Z,72.20
2018-04-02T15:01:15.827Z,72.00
2018-04-02T15:03:46.747Z,72.00
2018-04-02T15:06:17.417Z,71.70
2018-04-02T15:08:48.172Z,71.50
2018-04-02T15:11:18.926Z,71.40
2018-04-02T15:13:49.809Z,70.80
2018-04-02T15:16:20.835Z,70.70
2018-04-02T15:18:51.918Z,70.50
2018-04-02T15:21:22.798Z,70.90
2018-04-02T15:23:53.762Z,70.60
2018-04-02T15:26:25.444Z,71.40
2018-04-02T15:28:55.978Z,71.50
2018-04-02T15:31:26.976Z,71.00
2018-04-02T15:33:57.909Z,70.30
2018-04-02T15:36:28.756Z,70.40
2018-04-02T15:38:59.523Z,70.70
2018-04-02T15:41:30.431Z,70.40
2018-04-02T15:44:01.220Z,69.80
2018-04-02T15:46:31.931Z,69.00
2018-04-02T15:49:02.677Z,68.70
2018-04-02T15:51:33.994Z,68.50
2018-04-02T15:54:05.032Z,68.00
2018-04-02T15:56:37.053Z,66.60
2018-04-02T15:59:08.168Z,66.60
2018-04-02T16:01:39.441Z,65.70
2018-04-02T16:04:10.592Z,65.80
2018-04-02T16:06:41.479Z,66.60
2018-04-02T16:09:13.188Z,66.30
2018-04-02T16:11:44.826Z,66.30
2018-04-02T16:14:15.887Z,66.30
2018-04-02T16:16:46.773Z,66.40
2018-04-02T16:19:17.645Z,66.00
2018-04-02T16:21:48.538Z,65.60
2018-04-02T16:24:19.690Z,64.70
2018-04-02T16:26:51.509Z,64.60
2018-04-02T16:29:22.354Z,64.60
2018-04-02T16:31:54.206Z,64.00
2018-04-02T16:34:25.543Z,64.00
2018-04-02T16:36:56.834Z,64.20
2018-04-02T16:39:27.549Z,64.60
2018-04-02T16:41:58.369Z,64.50
2018-04-02T16:44:29.290Z,62.70
2018-04-02T16:47:00.004Z,60.30
2018-04-02T16:49:31.664Z,58.60
2018-04-02T16:52:02.387Z,58.20
2018-04-02T16:54:33.340Z,57.20
2018-04-02T16:57:04.272Z,56.40
2018-04-02T16:59:34.902Z,55.30
2018-04-02T17:02:05.769Z,56.00
2018-04-02T17:04:36.812Z,54.60
2018-04-02T17:07:07.432Z,53.90
2018-04-02T17:09:38.266Z,53.60
2018-04-02T17:12:09.304Z,52.80
2018-04-02T17:14:40.032Z,53.00
2018-04-02T17:17:10.811Z,52.80
2018-04-02T17:19:41.528Z,52.10
2018-04-02T17:22:12.204Z,50.80
2018-04-02T17:24:43.083Z,51.50
2018-04-02T17:27:14.190Z,51.40
2018-04-02T17:29:44.978Z,51.10
2018-04-02T17:32:16.001Z,50.80
2018-04-02T17:34:46.550Z,49.70
2018-04-02T17:37:17.551Z,48.60
2018-04-02T17:39:49.171Z,47.50
2018-04-02T17:42:19.893Z,47.50
2018-04-02T17:44:51.815Z,47.40
2018-04-02T17:47:23.409Z,47.10
2018-04-02T17:49:54.201Z,48.30
2018-04-02T17:52:25.147Z,47.40
2018-04-02T17:54:56.055Z,46.90
2018-04-02T17:57:26.911Z,46.60
2018-04-02T17:59:57.649Z,46.80
2018-04-02T18:02:28.376Z,47.40
2018-04-02T18:04:58.954Z,46.80
2018-04-02T18:07:29.665Z,46.10
2018-04-02T18:10:00.627Z,46.30
2018-04-02T18:12:31.564Z,46.80
2018-04-02T18:15:02.666Z,47.60
2018-04-02T18:17:34.384Z,46.60
2018-04-02T18:20:05.476Z,46.60
2018-04-02T18:22:36.529Z,46.80
2018-04-02T18:25:07.814Z,46.60
2018-04-02T18:27:39.750Z,45.80
2018-04-02T18:30:10.675Z,45.80
2018-04-02T18:32:41.427Z,45.10
2018-04-02T18:35:12.041Z,45.00
2018-04-02T18:37:42.962Z,44.20
2018-04-02T18:40:14.646Z,45.40
2018-04-02T18:42:47.171Z,45.70
2018-04-02T18:45:18.808Z,45.30
2018-04-02T18:47:50.356Z,45.10
2018-04-02T18:50:21.253Z,45.10
2018-04-02T18:52:51.821Z,45.40
2018-04-02T18:55:22.518Z,45.10
2018-04-02T18:57:53.336Z,44.70
2018-04-02T19:00:24.180Z,45.20
2018-04-02T19:02:55.052Z,45.30
2018-04-02T19:05:26.404Z,44.00
2018-04-02T19:07:58.145Z,44.60
2018-04-02T19:10:28.842Z,44.60
2018-04-02T19:12:59.670Z,43.40
2018-04-02T19:15:30.627Z,43.90
2018-04-02T19:18:01.425Z,44.50
2018-04-02T19:20:32.411Z,44.20
2018-04-02T19:23:03.988Z,43.50
2018-04-02T19:25:35.042Z,43.50
2018-04-02T19:28:05.998Z,41.90
2018-04-02T19:30:36.961Z,42.60
2018-04-02T19:33:08.002Z,42.40
2018-04-02T19:35:38.927Z,42.20
2018-04-02T19:38:11.172Z,41.90
2018-04-02T19:40:42.167Z,41.90
2018-04-02T19:43:13.891Z,43.00
2018-04-02T19:45:44.638Z,43.00
2018-04-02T19:48:16.015Z,42.40
2018-04-02T19:50:48.397Z,42.40
2018-04-02T19:53:19.039Z,42.30
2018-04-02T19:55:49.826Z,42.10
2018-04-02T19:58:20.518Z,41.40
2018-04-02T20:00:51.327Z,44.00
2018-04-02T20:03:22.213Z,45.30
2018-04-02T20:05:53.353Z,46.40
2018-04-02T20:08:25.172Z,48.90
2018-04-02T20:10:55.866Z,48.80
2018-04-02T20:13:27.301Z,48.80
2018-04-02T20:15:58.864Z,48.80
2018-04-02T20:18:29.540Z,48.70
2018-04-02T20:21:00.219Z,49.70
2018-04-02T20:23:31.949Z,51.00
2018-04-02T20:26:02.641Z,51.00
2018-04-02T20:28:34.296Z,51.10
2018-04-02T20:31:05.105Z,51.50
2018-04-02T20:33:36.584Z,51.80
2018-04-02T20:36:07.465Z,51.80
2018-04-02T20:38:39.533Z,51.40
2018-04-02T20:41:11.156Z,52.50
2018-04-02T20:43:42.419Z,52.50
2018-04-02T20:46:13.501Z,52.00
2018-04-02T20:48:44.929Z,52.80
2018-04-02T20:51:16.420Z,52.40
2018-04-02T20:53:47.224Z,52.20
2018-04-02T20:56:18.309Z,52.20
2018-04-02T20:58:49.990Z,52.30
2018-04-02T21:01:21.599Z,52.40
2018-04-02T21:03:52.437Z,52.40
2018-04-02T21:06:23.463Z,52.90
2018-04-02T21:08:54.090Z,52.20
2018-04-02T21:11:25.415Z,51.00
2018-04-02T21:13:56.592Z,49.80
2018-04-02T21:16:27.580Z,49.30
2018-04-02T21:18:58.378Z,48.90
2018-04-02T21:21:29.420Z,47.10
2018-04-02T21:24:00.291Z,46.40
2018-04-02T21:26:32.308Z,46.90
2018-04-02T21:29:03.933Z,47.20
2018-04-02T21:31:34.877Z,47.20
2018-04-02T21:34:06.638Z,46.90
2018-04-02T21:36:37.442Z,46.90
2018-04-02T21:39:09.167Z,46.50
2018-04-02T21:41:39.834Z,46.50
2018-04-02T21:46:53.119Z,47.40
2018-04-02T21:49:25.885Z,48.00
2018-04-02T21:51:57.194Z,48.00
2018-04-02T21:54:29.160Z,47.70
2018-04-02T21:57:00.935Z,47.00
2018-04-02T21:59:32.859Z,46.70
2018-04-02T22:02:04.676Z,47.30
2018-04-02T22:04:36.176Z,47.10
2018-04-02T22:07:08.567Z,48.10
2018-04-02T22:09:40.056Z,48.10
2018-04-02T22:12:11.816Z,47.60
2018-04-02T22:14:44.803Z,48.00
2018-04-02T22:17:16.245Z,48.00
2018-04-02T22:19:48.120Z,47.90
2018-04-02T22:22:20.442Z,47.40
2018-04-02T22:24:52.278Z,47.40
2018-04-02T22:27:25.308Z,47.90
2018-04-02T22:29:57.141Z,47.80
2018-04-02T22:32:29.983Z,47.20
2018-04-02T22:35:01.738Z,47.10
2018-04-02T22:37:32.432Z,46.60
2018-04-02T22:40:04.035Z,46.90
2018-04-02T22:42:37.192Z,46.70
2018-04-02T22:45:07.987Z,46.60
2018-04-02T22:47:39.311Z,46.60
2018-04-02T22:50:12.168Z,45.50
2018-04-02T22:52:43.978Z,45.50
2018-04-02T22:55:16.436Z,46.30
2018-04-02T22:57:47.898Z,46.30
2018-04-02T23:00:19.355Z,46.10
2018-04-02T23:02:51.319Z,45.70
2018-04-02T23:05:23.593Z,47.10
2018-04-02T23:07:56.037Z,47.70
2018-04-02T23:10:27.641Z,47.70
2018-04-02T23:12:59.528Z,47.70
2018-04-02T23:15:30.737Z,47.80
2018-04-02T23:18:02.766Z,47.50
2018-04-02T23:20:34.668Z,48.00
2018-04-02T23:23:06.672Z,48.00
2018-04-02T23:25:38.926Z,48.70
2018-04-02T23:28:10.484Z,48.70
2018-04-02T23:30:41.852Z,48.00
2018-04-02T23:33:14.613Z,47.10
2018-04-02T23:35:46.088Z,47.10
2018-04-02T23:38:17.780Z,47.10
2018-04-02T23:40:49.486Z,45.80
2018-04-02T23:43:21.100Z,45.80
2018-04-02T23:45:53.500Z,47.40
2018-04-02T23:48:25.883Z,47.40
2018-04-02T23:50:57.373Z,47.00
2018-04-02T23:53:28.902Z,47.10
2018-04-02T23:56:00.318Z,46.40
2018-04-02T23:58:32.273Z,46.60
